Time;durP1;ratioP1;P1;durP2;ratioP2;P2;SDS_P1;SDS_P2;PMS_P1;PMS_P2;Temp;Humidity;BMP_temperature;BMP_pressure;BME280_temperature;BME280_humidity;BME280_pressure;Samples;Min_cycle;Max_cycle;Signal;HPM_P1;HPM_P2
2022/03/12 00:01:31;;;;;;;13.63;5.20;;;;;;;;;;4992465;28;20046;-36
2022/03/12 00:04:00;;;;;;;14.23;4.78;;;;;;;;;;4992491;28;20031;-36
2022/03/12 00:06:27;;;;;;;4.78;4.00;;;;;;;;;;4992326;28;20030;-36
2022/03/12 00:08:53;;;;;;;8.98;4.30;;;;;;;;;;4992484;28;20029;-36
2022/03/12 00:11:22;;;;;;;7.80;4.00;;;;;;;;;;4992598;28;20046;-36
2022/03/12 00:13:49;;;;;;;8.60;4.72;;;;;;;;;;4992165;28;20539;-37
2022/03/12 00:16:22;;;;;;;11.23;5.28;;;;;;;;;;4992539;28;20034;-36
2022/03/12 00:18:52;;;;;;;10.85;5.20;;;;;;;;;;4992473;28;20453;-36
2022/03/12 00:21:26;;;;;;;10.52;5.57;;;;;;;;;;4992378;28;20092;-36
2022/03/12 00:23:54;;;;;;;16.17;5.78;;;;;;;;;;4992134;28;20129;-36
2022/03/12 00:26:23;;;;;;;6.97;4.05;;;;;;;;;;4992105;28;20026;-36
2022/03/12 00:28:50;;;;;;;13.45;4.57;;;;;;;;;;4990904;28;20073;-37
2022/03/12 00:31:16;;;;;;;11.95;4.88;;;;;;;;;;4992030;28;20045;-36
2022/03/12 00:33:41;;;;;;;9.70;4.63;;;;;;;;;;4992279;28;20038;-37
2022/03/12 00:36:07;;;;;;;11.50;5.20;;;;;;;;;;4991962;28;20449;-36
2022/03/12 00:38:33;;;;;;;7.15;4.03;;;;;;;;;;4992005;28;20053;-37
2022/03/12 00:41:04;;;;;;;5.90;3.88;;;;;;;;;;4992165;28;20117;-36
2022/03/12 00:43:30;;;;;;;11.90;5.13;;;;;;;;;;4991834;28;20030;-36
2022/03/12 00:45:55;;;;;;;11.48;5.40;;;;;;;;;;4991768;28;20070;-36
2022/03/12 00:48:20;;;;;;;8.10;4.63;;;;;;;;;;4991721;28;20038;-36
2022/03/12 00:50:47;;;;;;;8.70;3.83;;;;;;;;;;4992190;28;20026;-37
2022/03/12 00:53:12;;;;;;;10.60;5.90;;;;;;;;;;4991675;28;20041;-37
2022/03/12 00:55:37;;;;;;;11.68;5.50;;;;;;;;;;4991880;28;20034;-38
2022/03/12 00:58:03;;;;;;;7.70;4.90;;;;;;;;;;4990604;28;20034;-37
2022/03/12 01:00:29;;;;;;;9.23;4.35;;;;;;;;;;4991886;28;20034;-37
2022/03/12 01:02:54;;;;;;;11.77;5.45;;;;;;;;;;4991727;28;20040;-37
2022/03/12 01:05:34;;;;;;;10.80;5.43;;;;;;;;;;4991769;28;20022;-36
2022/03/12 01:08:00;;;;;;;14.65;5.22;;;;;;;;;;4992671;28;20384;-36
2022/03/12 01:10:26;;;;;;;7.28;4.20;;;;;;;;;;4995877;28;20106;-36
2022/03/12 01:12:51;;;;;;;8.77;4.05;;;;;;;;;;4995844;28;20038;-36
2022/03/12 01:15:16;;;;;;;12.25;5.95;;;;;;;;;;4994592;28;20030;-36
2022/03/12 01:17:42;;;;;;;10.27;4.95;;;;;;;;;;4995753;28;20023;-36
2022/03/12 01:20:08;;;;;;;6.93;5.28;;;;;;;;;;4995475;28;20026;-36
2022/03/12 01:22:36;;;;;;;11.02;3.67;;;;;;;;;;4995606;28;20041;-36
2022/03/12 01:25:02;;;;;;;15.38;5.88;;;;;;;;;;4995636;28;20026;-37
2022/03/12 01:27:28;;;;;;;6.85;4.70;;;;;;;;;;4995570;28;20392;-37
2022/03/12 01:29:53;;;;;;;10.13;5.05;;;;;;;;;;4995546;28;20026;-37
2022/03/12 01:32:19;;;;;;;9.77;4.68;;;;;;;;;;4995198;28;20042;-37
2022/03/12 01:34:44;;;;;;;11.63;5.22;;;;;;;;;;4995241;28;20068;-36
2022/03/12 01:37:10;;;;;;;11.38;5.15;;;;;;;;;;4995309;28;20027;-37
2022/03/12 01:39:35;;;;;;;5.88;4.07;;;;;;;;;;4995139;28;20014;-37
2022/03/12 01:42:03;;;;;;;9.90;5.57;;;;;;;;;;4995261;28;20509;-36
2022/03/12 01:44:28;;;;;;;8.18;4.70;;;;;;;;;;4995021;28;20026;-36
2022/03/12 01:46:54;;;;;;;8.30;5.13;;;;;;;;;;4994889;28;20577;-36
2022/03/12 01:49:23;;;;;;;8.35;4.13;;;;;;;;;;4994946;28;20026;-36
2022/03/12 01:51:50;;;;;;;6.57;4.18;;;;;;;;;;4994822;28;20034;-39
2022/03/12 01:54:20;;;;;;;6.60;4.05;;;;;;;;;;4994818;28;20120;-36
2022/03/12 01:56:45;;;;;;;6.93;4.60;;;;;;;;;;4995174;28;20046;-37
2022/03/12 01:59:11;;;;;;;7.10;3.75;;;;;;;;;;4994937;28;20120;-36
2022/03/12 02:01:36;;;;;;;8.48;4.72;;;;;;;;;;4994667;28;20085;-36
2022/03/12 02:04:04;;;;;;;9.43;4.38;;;;;;;;;;4994708;28;20018;-36
2022/03/12 02:06:32;;;;;;;6.18;4.20;;;;;;;;;;4994817;28;20440;-36
2022/03/12 02:08:58;;;;;;;8.05;5.00;;;;;;;;;;4994876;28;20022;-36
2022/03/12 02:11:27;;;;;;;10.45;4.30;;;;;;;;;;4994440;28;20041;-36
2022/03/12 02:13:57;;;;;;;9.25;4.25;;;;;;;;;;4994448;28;20384;-36
2022/03/12 02:16:23;;;;;;;10.23;5.13;;;;;;;;;;4994414;28;20682;-36
2022/03/12 02:18:48;;;;;;;9.27;4.85;;;;;;;;;;4992572;28;20054;-36
2022/03/12 02:21:14;;;;;;;10.30;4.88;;;;;;;;;;4994431;28;20046;-37
2022/03/12 02:23:48;;;;;;;6.07;3.67;;;;;;;;;;4994603;28;20422;-37
2022/03/12 02:26:14;;;;;;;9.38;2.72;;;;;;;;;;4994545;28;20038;-37
2022/03/12 02:28:39;;;;;;;7.05;4.32;;;;;;;;;;4994204;28;20546;-36
2022/03/12 02:31:05;;;;;;;11.52;3.92;;;;;;;;;;4994128;28;20080;-36
2022/03/12 02:33:31;;;;;;;6.57;3.55;;;;;;;;;;4994132;28;20052;-36
2022/03/12 02:35:57;;;;;;;11.93;3.75;;;;;;;;;;4994093;28;20569;-36
2022/03/12 02:38:24;;;;;;;11.82;4.90;;;;;;;;;;4994338;28;20033;-36
2022/03/12 02:40:50;;;;;;;5.97;3.60;;;;;;;;;;4994234;28;20041;-36
2022/03/12 02:43:20;;;;;;;9.23;5.13;;;;;;;;;;4993775;28;20061;-36
2022/03/12 02:45:48;;;;;;;10.98;4.32;;;;;;;;;;4993715;28;20059;-36
2022/03/12 02:48:13;;;;;;;7.50;3.63;;;;;;;;;;4993696;28;20041;-37
2022/03/12 02:50:43;;;;;;;10.45;4.53;;;;;;;;;;4993878;28;20500;-36
2022/03/12 02:53:08;;;;;;;8.35;4.40;;;;;;;;;;4994035;28;20026;-36
2022/03/12 02:55:34;;;;;;;6.38;3.47;;;;;;;;;;4993738;28;20043;-36
2022/03/12 02:58:00;;;;;;;10.13;4.32;;;;;;;;;;4993685;28;20030;-37
2022/03/12 03:00:25;;;;;;;6.75;3.53;;;;;;;;;;4993794;28;20030;-37
2022/03/12 03:02:54;;;;;;;7.50;3.88;;;;;;;;;;4993497;28;20035;-37
2022/03/12 03:05:46;;;;;;;10.15;4.10;;;;;;;;;;4993439;28;20477;-36
2022/03/12 03:08:16;;;;;;;6.03;3.65;;;;;;;;;;4993468;28;20120;-36
2022/03/12 03:10:46;;;;;;;7.60;3.72;;;;;;;;;;4993333;28;20681;-37
2022/03/12 03:13:11;;;;;;;8.65;3.65;;;;;;;;;;5008312;28;20141;-37
2022/03/12 03:15:37;;;;;;;6.97;5.10;;;;;;;;;;4993370;28;20101;-35
2022/03/12 03:18:04;;;;;;;8.65;4.32;;;;;;;;;;4993521;28;20117;-36
2022/03/12 03:20:29;;;;;;;7.43;4.00;;;;;;;;;;4993185;28;20014;-36
2022/03/12 03:22:55;;;;;;;9.02;4.68;;;;;;;;;;4993397;28;20053;-37
2022/03/12 03:25:20;;;;;;;2.80;1.52;;;;;;;;;;4993369;28;20415;-36
2022/03/12 03:27:47;;;;;;;8.80;4.00;;;;;;;;;;4993397;28;20426;-36
2022/03/12 03:30:12;;;;;;;9.05;3.78;;;;;;;;;;4992266;28;20019;-36
2022/03/12 03:32:37;;;;;;;9.82;4.78;;;;;;;;;;4992981;28;20405;-37
2022/03/12 03:35:03;;;;;;;9.80;3.95;;;;;;;;;;4993188;28;20026;-37
2022/03/12 03:37:28;;;;;;;8.88;3.92;;;;;;;;;;4992955;28;20420;-36
2022/03/12 03:39:54;;;;;;;7.22;3.15;;;;;;;;;;4993136;28;20030;-36
2022/03/12 03:42:21;;;;;;;5.10;3.15;;;;;;;;;;4992778;28;20472;-36
2022/03/12 03:44:46;;;;;;;7.85;3.80;;;;;;;;;;4992707;28;20454;-37
2022/03/12 03:47:11;;;;;;;12.75;5.07;;;;;;;;;;4992675;28;20042;-36
2022/03/12 03:49:37;;;;;;;8.20;3.92;;;;;;;;;;4992807;28;20033;-36
2022/03/12 03:52:02;;;;;;;6.88;4.00;;;;;;;;;;4992982;28;20101;-36
2022/03/12 03:54:29;;;;;;;8.45;3.80;;;;;;;;;;4992571;28;20537;-36
2022/03/12 03:56:54;;;;;;;6.80;3.78;;;;;;;;;;4992917;28;20034;-36
2022/03/12 03:59:20;;;;;;;8.85;4.13;;;;;;;;;;4992466;28;20362;-36
2022/03/12 04:01:47;;;;;;;7.93;4.43;;;;;;;;;;4992698;28;20034;-36
2022/03/12 04:04:12;;;;;;;8.13;4.38;;;;;;;;;;4992428;28;20018;-36
2022/03/12 04:06:38;;;;;;;6.00;3.75;;;;;;;;;;4992403;28;20105;-36
2022/03/12 04:09:04;;;;;;;6.88;2.88;;;;;;;;;;4992418;28;20023;-37
2022/03/12 04:11:29;;;;;;;5.65;3.63;;;;;;;;;;4992394;28;20026;-36
2022/03/12 04:13:57;;;;;;;10.98;5.57;;;;;;;;;;4992858;28;20026;-36
2022/03/12 04:16:23;;;;;;;10.57;3.63;;;;;;;;;;4992201;28;20035;-36
2022/03/12 04:18:49;;;;;;;6.15;4.55;;;;;;;;;;4992328;28;20292;-36
2022/03/12 04:21:17;;;;;;;7.05;2.95;;;;;;;;;;5007112;28;20053;-36
2022/03/12 04:23:43;;;;;;;6.72;4.32;;;;;;;;;;4992492;28;20117;-36
2022/03/12 04:26:10;;;;;;;5.50;3.55;;;;;;;;;;4992505;28;20077;-36
2022/03/12 04:28:37;;;;;;;8.50;3.92;;;;;;;;;;4992342;28;20026;-36
2022/03/12 04:31:05;;;;;;;7.00;3.63;;;;;;;;;;4992010;28;20023;-36
2022/03/12 04:33:30;;;;;;;7.80;3.60;;;;;;;;;;4992310;28;20036;-36
2022/03/12 04:35:57;;;;;;;6.78;4.13;;;;;;;;;;4992287;28;20469;-36
2022/03/12 04:38:23;;;;;;;11.35;4.75;;;;;;;;;;4992272;28;20417;-36
2022/03/12 04:40:48;;;;;;;6.90;2.83;;;;;;;;;;4991896;28;20031;-37
2022/03/12 04:43:18;;;;;;;4.43;3.10;;;;;;;;;;4992127;28;20053;-36
2022/03/12 04:45:45;;;;;;;6.18;4.15;;;;;;;;;;4991833;28;20046;-36
2022/03/12 04:48:14;;;;;;;5.00;3.17;;;;;;;;;;4992168;28;20205;-36
2022/03/12 04:50:40;;;;;;;9.68;4.50;;;;;;;;;;4991916;28;20502;-36
2022/03/12 04:53:05;;;;;;;7.03;4.03;;;;;;;;;;4991849;28;20076;-36
2022/03/12 04:55:31;;;;;;;7.72;4.63;;;;;;;;;;4992163;28;20026;-37
2022/03/12 04:57:57;;;;;;;9.15;4.07;;;;;;;;;;4991824;28;20029;-36
2022/03/12 05:00:25;;;;;;;5.88;3.45;;;;;;;;;;4992004;28;20034;-37
2022/03/12 05:03:09;;;;;;;9.68;3.60;;;;;;;;;;4992069;28;20085;-36
2022/03/12 05:05:39;;;;;;;6.88;3.53;;;;;;;;;;4991621;28;20069;-36
2022/03/12 05:08:05;;;;;;;7.88;2.90;;;;;;;;;;4992050;28;20045;-42
2022/03/12 05:10:30;;;;;;;8.23;4.43;;;;;;;;;;4991885;28;20046;-36
2022/03/12 05:13:00;;;;;;;8.30;4.07;;;;;;;;;;4991654;28;20073;-36
2022/03/12 05:15:28;;;;;;;5.30;2.72;;;;;;;;;;4991965;28;20674;-36
2022/03/12 05:17:56;;;;;;;8.05;4.05;;;;;;;;;;4991661;28;20038;-36
2022/03/12 05:20:25;;;;;;;6.95;3.13;;;;;;;;;;4991814;28;20048;-36
2022/03/12 05:22:51;;;;;;;7.00;3.58;;;;;;;;;;4991492;28;20038;-36
2022/03/12 05:25:18;;;;;;;10.38;4.70;;;;;;;;;;4991814;28;20037;-36
2022/03/12 05:27:52;;;;;;;10.95;4.18;;;;;;;;;;4991633;28;20398;-36
2022/03/12 05:30:18;;;;;;;8.98;4.28;;;;;;;;;;4991869;28;20038;-36
2022/03/12 05:32:46;;;;;;;5.55;3.38;;;;;;;;;;4991440;28;20034;-36
2022/03/12 05:35:12;;;;;;;8.50;3.72;;;;;;;;;;4991328;28;20034;-36
2022/03/12 05:37:40;;;;;;;4.80;3.13;;;;;;;;;;4991919;28;20105;-36
2022/03/12 05:40:09;;;;;;;6.13;3.90;;;;;;;;;;4991388;28;20121;-36
2022/03/12 05:42:35;;;;;;;6.28;3.85;;;;;;;;;;4991356;28;20185;-36
2022/03/12 05:45:04;;;;;;;6.65;3.45;;;;;;;;;;4991314;28;20120;-36
2022/03/12 05:47:36;;;;;;;8.15;3.20;;;;;;;;;;4991482;28;20061;-36
2022/03/12 05:50:09;;;;;;;4.60;2.70;;;;;;;;;;4991741;28;20599;-36
2022/03/12 05:52:36;;;;;;;5.82;4.13;;;;;;;;;;4991369;28;20031;-36
2022/03/12 05:55:04;;;;;;;10.00;4.05;;;;;;;;;;4994469;28;20496;-36
2022/03/12 05:57:31;;;;;;;6.72;3.92;;;;;;;;;;4994847;28;20496;-36
2022/03/12 05:59:57;;;;;;;6.10;3.60;;;;;;;;;;4994785;28;20091;-36
2022/03/12 06:02:23;;;;;;;5.50;3.88;;;;;;;;;;4994532;28;20039;-36
2022/03/12 06:04:48;;;;;;;9.57;3.45;;;;;;;;;;4995068;28;20014;-37
2022/03/12 06:07:14;;;;;;;6.18;3.65;;;;;;;;;;5009654;28;20060;-36
2022/03/12 06:09:40;;;;;;;6.50;3.03;;;;;;;;;;4994521;28;20516;-36
2022/03/12 06:12:07;;;;;;;4.65;2.97;;;;;;;;;;4994638;28;20034;-36
2022/03/12 06:14:40;;;;;;;10.27;3.80;;;;;;;;;;4994680;28;20018;-36
2022/03/12 06:17:05;;;;;;;;;;;;;;;;;;4994936;28;20053;-36
2022/03/12 06:19:31;;;;;;;6.65;3.30;;;;;;;;;;4994666;28;19914;-36
2022/03/12 06:21:57;;;;;;;3.78;2.92;;;;;;;;;;4994450;28;20046;-36
2022/03/12 06:24:22;;;;;;;9.65;4.32;;;;;;;;;;4994514;28;20088;-36
2022/03/12 06:26:48;;;;;;;5.53;3.40;;;;;;;;;;4994306;28;20068;-36
2022/03/12 06:29:14;;;;;;;5.43;2.60;;;;;;;;;;4994213;28;20581;-36
2022/03/12 06:31:42;;;;;;;8.40;4.05;;;;;;;;;;4994462;28;20030;-36
2022/03/12 06:34:12;;;;;;;6.88;3.83;;;;;;;;;;4994160;28;20540;-36
2022/03/12 06:36:38;;;;;;;7.55;3.80;;;;;;;;;;4994054;28;20445;-36
2022/03/12 06:39:05;;;;;;;8.75;3.00;;;;;;;;;;4994037;28;20029;-36
2022/03/12 06:41:38;;;;;;;7.57;4.20;;;;;;;;;;4993851;28;20046;-36
2022/03/12 06:44:05;;;;;;;4.15;2.92;;;;;;;;;;4993919;28;20054;-36
2022/03/12 06:46:34;;;;;;;7.30;4.03;;;;;;;;;;4993783;28;20747;-36
2022/03/12 06:49:00;;;;;;;6.47;3.65;;;;;;;;;;4993931;28;20026;-36
2022/03/12 06:51:26;;;;;;;6.50;4.05;;;;;;;;;;4993627;28;20026;-36
2022/03/12 06:53:52;;;;;;;6.15;3.83;;;;;;;;;;4993879;28;20045;-36
2022/03/12 06:56:20;;;;;;;6.50;3.72;;;;;;;;;;4993975;28;20031;-36
2022/03/12 06:58:46;;;;;;;6.65;3.75;;;;;;;;;;4993694;28;20034;-37
2022/03/12 07:01:12;;;;;;;2.60;1.85;;;;;;;;;;4993583;28;20034;-36
2022/03/12 07:03:37;;;;;;;6.70;3.50;;;;;;;;;;4993845;28;20038;-36
2022/03/12 07:06:03;;;;;;;6.45;3.58;;;;;;;;;;4993435;28;20030;-36
2022/03/12 07:08:29;;;;;;;8.38;4.05;;;;;;;;;;4993651;28;20033;-36
2022/03/12 07:10:56;;;;;;;8.15;2.90;;;;;;;;;;4992318;28;20476;-36
2022/03/12 07:13:22;;;;;;;7.18;3.83;;;;;;;;;;4993548;28;20037;-36
2022/03/12 07:15:47;;;;;;;10.43;3.67;;;;;;;;;;4993382;28;20381;-37
2022/03/12 07:18:13;;;;;;;5.32;3.17;;;;;;;;;;4993364;28;20038;-37
2022/03/12 07:20:38;;;;;;;3.70;2.88;;;;;;;;;;4993340;28;20026;-36
2022/03/12 07:23:04;;;;;;;8.38;4.20;;;;;;;;;;4993481;28;20039;-36
2022/03/12 07:25:30;;;;;;;5.05;3.50;;;;;;;;;;4993499;28;20023;-36
2022/03/12 07:27:56;;;;;;;6.00;2.97;;;;;;;;;;4993371;28;20487;-36
2022/03/12 07:30:21;;;;;;;9.20;4.03;;;;;;;;;;4993152;28;20379;-37
2022/03/12 07:32:47;;;;;;;5.75;3.88;;;;;;;;;;4993309;28;20030;-37
2022/03/12 07:35:14;;;;;;;8.77;3.72;;;;;;;;;;4993008;28;20113;-36
2022/03/12 07:37:40;;;;;;;4.32;2.95;;;;;;;;;;4993402;28;20068;-36
2022/03/12 07:40:06;;;;;;;8.52;4.22;;;;;;;;;;4993172;28;20045;-36
2022/03/12 07:42:32;;;;;;;6.45;3.78;;;;;;;;;;4992745;28;20145;-37
2022/03/12 07:45:04;;;;;;;5.85;3.17;;;;;;;;;;4991371;28;20109;-37
2022/03/12 07:47:30;;;;;;;5.43;3.00;;;;;;;;;;4992755;28;20027;-37
2022/03/12 07:49:55;;;;;;;4.97;3.40;;;;;;;;;;4991503;28;20036;-37
2022/03/12 07:52:21;;;;;;;6.03;3.30;;;;;;;;;;4992673;28;20085;-36
2022/03/12 07:54:46;;;;;;;7.57;3.40;;;;;;;;;;4992737;28;20026;-36
2022/03/12 07:57:13;;;;;;;5.53;2.75;;;;;;;;;;4992857;28;20034;-36
2022/03/12 07:59:38;;;;;;;9.15;3.33;;;;;;;;;;4992542;28;20033;-36
2022/03/12 08:02:06;;;;;;;6.53;4.07;;;;;;;;;;4992404;28;20046;-36
2022/03/12 08:04:33;;;;;;;7.03;3.22;;;;;;;;;;4992468;28;20026;-36
2022/03/12 08:07:02;;;;;;;4.63;3.00;;;;;;;;;;4992565;28;20092;-36
2022/03/12 08:09:27;;;;;;;6.80;3.38;;;;;;;;;;4992624;28;20385;-36
2022/03/12 08:11:53;;;;;;;5.28;3.03;;;;;;;;;;4992655;28;20042;-36
2022/03/12 08:14:20;;;;;;;4.45;2.70;;;;;;;;;;4992596;28;20065;-36
2022/03/12 08:16:47;;;;;;;3.67;2.40;;;;;;;;;;4991725;28;20128;-36
2022/03/12 08:19:13;;;;;;;3.65;2.08;;;;;;;;;;4992368;28;20037;-36
2022/03/12 08:21:39;;;;;;;7.95;3.13;;;;;;;;;;4991980;28;20038;-36
2022/03/12 08:24:05;;;;;;;17.75;3.28;;;;;;;;;;4992186;28;20025;-36
2022/03/12 08:26:30;;;;;;;5.32;3.20;;;;;;;;;;4992124;28;20053;-37
2022/03/12 08:28:56;;;;;;;5.43;2.92;;;;;;;;;;4992113;28;20033;-36
2022/03/12 08:31:22;;;;;;;5.38;2.65;;;;;;;;;;4992104;28;20038;-36
2022/03/12 08:33:47;;;;;;;11.02;3.40;;;;;;;;;;4992163;28;20425;-36
2022/03/12 08:36:13;;;;;;;7.00;3.08;;;;;;;;;;4992284;28;20036;-37
2022/03/12 08:38:44;;;;;;;7.53;2.97;;;;;;;;;;4992316;28;20385;-36
2022/03/12 08:41:11;;;;;;;4.15;2.35;;;;;;;;;;4991923;28;20035;-37
2022/03/12 08:43:37;;;;;;;4.32;2.95;;;;;;;;;;4992037;28;20034;-37
2022/03/12 08:46:05;;;;;;;7.22;3.95;;;;;;;;;;4991752;28;20050;-37
2022/03/12 08:48:31;;;;;;;5.53;3.05;;;;;;;;;;4992026;28;20034;-37
2022/03/12 08:50:56;;;;;;;5.95;2.92;;;;;;;;;;4992183;28;20432;-37
2022/03/12 08:53:22;;;;;;;7.32;3.35;;;;;;;;;;4991714;28;20030;-37
2022/03/12 08:55:48;;;;;;;5.53;3.03;;;;;;;;;;4991947;28;20027;-36
2022/03/12 08:58:13;;;;;;;5.75;2.17;;;;;;;;;;4992116;28;20080;-37
2022/03/12 09:00:39;;;;;;;3.70;2.63;;;;;;;;;;4991733;28;20493;-36
2022/03/12 09:03:05;;;;;;;4.38;2.50;;;;;;;;;;4991979;28;20058;-37
2022/03/12 09:05:30;;;;;;;3.83;2.33;;;;;;;;;;4991696;28;20548;-36
2022/03/12 09:07:57;;;;;;;8.90;2.70;;;;;;;;;;4990538;28;20109;-36
2022/03/12 09:10:23;;;;;;;5.55;3.47;;;;;;;;;;4991744;28;20034;-37
2022/03/12 09:12:49;;;;;;;3.72;2.33;;;;;;;;;;4991947;28;20023;-36
2022/03/12 09:15:17;;;;;;;3.35;2.63;;;;;;;;;;4991937;28;20038;-37
2022/03/12 09:17:43;;;;;;;4.82;2.42;;;;;;;;;;4991980;28;20514;-36
2022/03/12 09:20:08;;;;;;;5.57;2.22;;;;;;;;;;4991684;28;20035;-37
2022/03/12 09:22:34;;;;;;;4.53;2.20;;;;;;;;;;4991735;28;20052;-36
2022/03/12 09:25:03;;;;;;;4.22;3.05;;;;;;;;;;4991924;28;20049;-36
2022/03/12 09:27:29;;;;;;;5.28;3.33;;;;;;;;;;4991578;28;20026;-37
2022/03/12 09:29:55;;;;;;;6.22;3.03;;;;;;;;;;4994782;28;20110;-36
2022/03/12 09:32:21;;;;;;;4.65;2.92;;;;;;;;;;4995265;28;20671;-37
2022/03/12 09:34:47;;;;;;;4.25;2.35;;;;;;;;;;4995244;28;20109;-36
2022/03/12 09:37:12;;;;;;;4.93;2.50;;;;;;;;;;4995494;28;20027;-36
2022/03/12 09:39:39;;;;;;;3.75;2.83;;;;;;;;;;4995439;28;20388;-37
2022/03/12 09:42:05;;;;;;;2.95;1.80;;;;;;;;;;4993784;28;20030;-36
2022/03/12 09:44:30;;;;;;;4.55;2.13;;;;;;;;;;4995138;28;20064;-37
2022/03/12 09:46:56;;;;;;;4.63;2.20;;;;;;;;;;4995004;28;20054;-36
2022/03/12 09:49:22;;;;;;;6.63;3.13;;;;;;;;;;4995202;28;20552;-36
2022/03/12 09:51:49;;;;;;;6.43;3.13;;;;;;;;;;4995307;28;20461;-36
2022/03/12 09:54:15;;;;;;;7.90;2.72;;;;;;;;;;4995182;28;20034;-36
2022/03/12 09:56:42;;;;;;;4.53;2.38;;;;;;;;;;4994813;28;20029;-36
2022/03/12 09:59:07;;;;;;;7.15;3.17;;;;;;;;;;4994883;28;20038;-36
2022/03/12 10:01:33;;;;;;;4.22;2.53;;;;;;;;;;4994623;28;20034;-37
2022/03/12 10:03:58;;;;;;;2.63;1.88;;;;;;;;;;4994791;28;20382;-37
2022/03/12 10:06:24;;;;;;;3.38;2.33;;;;;;;;;;4994687;28;20030;-36
2022/03/12 10:08:50;;;;;;;8.48;3.00;;;;;;;;;;5009796;28;20164;-37
2022/03/12 10:11:17;;;;;;;4.70;2.65;;;;;;;;;;4994604;28;20029;-36
2022/03/12 10:13:42;;;;;;;3.88;1.85;;;;;;;;;;4994843;28;20034;-36
2022/03/12 10:16:09;;;;;;;4.07;2.38;;;;;;;;;;4994832;28;20465;-36
2022/03/12 10:18:36;;;;;;;3.85;2.30;;;;;;;;;;4994397;28;20037;-36
2022/03/12 10:21:01;;;;;;;3.53;1.95;;;;;;;;;;4994311;28;20469;-37
2022/03/12 10:23:27;;;;;;;5.18;2.72;;;;;;;;;;4994636;28;20042;-37
2022/03/12 10:25:52;;;;;;;4.78;2.80;;;;;;;;;;4994631;28;20462;-36
2022/03/12 10:28:18;;;;;;;6.57;3.08;;;;;;;;;;4994272;28;20610;-37
2022/03/12 10:30:43;;;;;;;5.05;2.88;;;;;;;;;;4994284;28;20026;-36
2022/03/12 10:33:19;;;;;;;5.13;2.22;;;;;;;;;;4994154;28;20540;-37
2022/03/12 10:35:45;;;;;;;4.53;1.75;;;;;;;;;;4993340;28;20057;-36
2022/03/12 10:38:11;;;;;;;4.68;3.33;;;;;;;;;;4994118;28;20529;-36
2022/03/12 10:40:37;;;;;;;3.55;2.17;;;;;;;;;;4993805;28;20038;-36
2022/03/12 10:43:07;;;;;;;5.72;2.40;;;;;;;;;;4994471;28;20500;-36
2022/03/12 10:45:43;;;;;;;4.28;2.80;;;;;;;;;;4993745;28;20096;-37
2022/03/12 10:48:09;;;;;;;5.75;2.25;;;;;;;;;;4993967;28;20041;-37
2022/03/12 10:50:39;;;;;;;5.50;2.60;;;;;;;;;;4994078;28;20022;-36
2022/03/12 10:53:06;;;;;;;3.75;2.30;;;;;;;;;;4993800;28;20041;-37
2022/03/12 10:55:33;;;;;;;6.38;2.28;;;;;;;;;;4993800;28;20018;-36
2022/03/12 10:57:58;;;;;;;5.95;2.20;;;;;;;;;;4994093;28;20058;-37
2022/03/12 11:00:25;;;;;;;3.92;2.55;;;;;;;;;;5009027;28;20057;-36
2022/03/12 11:03:03;;;;;;;4.03;2.47;;;;;;;;;;4993662;28;20405;-36
2022/03/12 11:05:31;;;;;;;6.78;2.70;;;;;;;;;;4993896;28;20022;-37
2022/03/12 11:08:06;;;;;;;3.42;1.50;;;;;;;;;;4993896;28;20030;-36
2022/03/12 11:10:33;;;;;;;5.97;3.42;;;;;;;;;;4993524;28;20035;-37
2022/03/12 11:12:59;;;;;;;3.67;2.17;;;;;;;;;;4993828;28;20053;-37
2022/03/12 11:15:26;;;;;;;5.68;3.50;;;;;;;;;;4993299;28;20118;-36
2022/03/12 11:17:51;;;;;;;4.30;2.38;;;;;;;;;;4993425;28;20109;-37
2022/03/12 11:20:37;;;;;;;2.75;2.30;;;;;;;;;;4993688;28;20054;-36
2022/03/12 11:23:06;;;;;;;5.32;3.08;;;;;;;;;;4992964;28;20112;-36
2022/03/12 11:25:35;;;;;;;6.55;2.50;;;;;;;;;;4993439;28;20033;-36
2022/03/12 11:28:03;;;;;;;6.65;2.33;;;;;;;;;;4993382;28;20105;-36
2022/03/12 11:30:30;;;;;;;4.38;2.40;;;;;;;;;;4993081;28;20019;-36
2022/03/12 11:33:08;;;;;;;5.03;1.70;;;;;;;;;;4993042;28;20035;-36
2022/03/12 11:35:37;;;;;;;3.80;2.13;;;;;;;;;;4992955;28;20421;-37
2022/03/12 11:38:22;;;;;;;1.63;1.45;;;;;;;;;;4993017;28;20376;-37
2022/03/12 11:41:04;;;;;;;3.00;1.85;;;;;;;;;;4993243;28;20494;-37
2022/03/12 11:43:31;;;;;;;6.97;2.47;;;;;;;;;;4993128;28;20080;-37
2022/03/12 11:45:59;;;;;;;5.07;2.50;;;;;;;;;;4992694;28;20093;-36
2022/03/12 11:48:29;;;;;;;3.97;2.47;;;;;;;;;;4992687;28;20030;-36
2022/03/12 11:50:55;;;;;;;3.42;1.88;;;;;;;;;;4991907;28;20034;-36
2022/03/12 11:53:20;;;;;;;5.68;2.28;;;;;;;;;;4992891;28;20038;-36
2022/03/12 11:55:51;;;;;;;3.22;2.40;;;;;;;;;;4993018;28;20103;-37
2022/03/12 11:58:18;;;;;;;3.70;2.13;;;;;;;;;;4992539;28;20037;-36
2022/03/12 12:00:46;;;;;;;3.22;1.73;;;;;;;;;;4992603;28;20010;-37
2022/03/12 12:03:13;;;;;;;3.22;2.13;;;;;;;;;;4992764;28;20043;-37
2022/03/12 12:05:41;;;;;;;4.35;2.10;;;;;;;;;;4992371;28;20033;-36
2022/03/12 12:08:08;;;;;;;3.30;2.03;;;;;;;;;;4992815;28;20042;-37
2022/03/12 12:10:39;;;;;;;4.82;1.92;;;;;;;;;;4992299;28;20019;-36
2022/03/12 12:13:05;;;;;;;4.20;1.92;;;;;;;;;;4992659;28;20030;-36
2022/03/12 12:15:39;;;;;;;3.58;2.10;;;;;;;;;;4992546;28;20130;-36
2022/03/12 12:18:06;;;;;;;2.65;1.98;;;;;;;;;;4992317;28;20030;-37
2022/03/12 12:20:32;;;;;;;4.45;1.85;;;;;;;;;;4992357;28;20046;-37
2022/03/12 12:22:58;;;;;;;2.10;1.67;;;;;;;;;;4992107;28;20078;-37
2022/03/12 12:25:25;;;;;;;3.80;1.65;;;;;;;;;;4992102;28;20416;-37
2022/03/12 12:27:52;;;;;;;4.00;1.88;;;;;;;;;;4992433;28;20054;-36
2022/03/12 12:30:38;;;;;;;4.65;2.05;;;;;;;;;;4992434;28;20164;-37
2022/03/12 12:33:14;;;;;;;5.43;2.30;;;;;;;;;;4990787;28;20034;-37
2022/03/12 12:35:40;;;;;;;1.38;1.23;;;;;;;;;;4992035;28;20121;-37
2022/03/12 12:38:10;;;;;;;4.28;1.80;;;;;;;;;;4992013;28;20053;-36
2022/03/12 12:40:52;;;;;;;2.00;1.13;;;;;;;;;;4991869;28;20034;-37
2022/03/12 12:43:26;;;;;;;5.28;2.25;;;;;;;;;;4991919;28;20088;-37
2022/03/12 12:45:52;;;;;;;4.97;2.22;;;;;;;;;;4991840;28;20053;-37
2022/03/12 12:48:18;;;;;;;3.00;1.80;;;;;;;;;;4991840;28;20035;-37
2022/03/12 12:51:04;;;;;;;3.15;2.15;;;;;;;;;;4992139;28;20101;-36
2022/03/12 12:53:30;;;;;;;3.03;1.88;;;;;;;;;;4991864;28;20031;-37
2022/03/12 12:56:14;;;;;;;5.35;2.13;;;;;;;;;;4991925;28;20484;-36
2022/03/12 12:58:46;;;;;;;6.03;2.17;;;;;;;;;;5006941;28;20038;-36
2022/03/12 13:01:16;;;;;;;5.15;1.98;;;;;;;;;;5007073;28;20061;-36
2022/03/12 13:03:47;;;;;;;3.97;1.85;;;;;;;;;;4995109;28;20116;-36
2022/03/12 13:06:13;;;;;;;3.47;2.28;;;;;;;;;;4994560;28;20481;-36
2022/03/12 13:08:43;;;;;;;5.80;2.38;;;;;;;;;;4995901;28;20022;-36
2022/03/12 13:11:28;;;;;;;2.47;1.77;;;;;;;;;;4995738;28;20496;-36
2022/03/12 13:13:58;;;;;;;5.53;1.90;;;;;;;;;;4995738;28;20089;-36
2022/03/12 13:16:24;;;;;;;7.45;2.75;;;;;;;;;;4995588;28;20034;-36
2022/03/12 13:18:49;;;;;;;4.72;2.17;;;;;;;;;;4995915;28;20096;-37
2022/03/12 13:21:26;;;;;;;3.90;1.80;;;;;;;;;;4995465;28;20389;-36
2022/03/12 13:23:51;;;;;;;2.60;2.05;;;;;;;;;;4995505;28;20046;-37
2022/03/12 13:26:19;;;;;;;3.25;2.60;;;;;;;;;;4995551;28;20026;-36
2022/03/12 13:28:47;;;;;;;3.95;2.60;;;;;;;;;;4995415;28;20069;-37
2022/03/12 13:31:25;;;;;;;5.50;1.85;;;;;;;;;;4995595;28;20092;-37
2022/03/12 13:34:10;;;;;;;5.60;2.60;;;;;;;;;;4995330;28;20034;-37
2022/03/12 13:36:40;;;;;;;3.85;1.95;;;;;;;;;;4995512;28;20038;-37
2022/03/12 13:39:07;;;;;;;2.80;1.40;;;;;;;;;;4995209;28;20109;-37
2022/03/12 13:41:33;;;;;;;2.15;1.73;;;;;;;;;;4995378;28;20034;-36
2022/03/12 13:43:58;;;;;;;3.38;2.95;;;;;;;;;;4995375;28;20026;-37
2022/03/12 13:46:25;;;;;;;4.35;2.28;;;;;;;;;;4994924;28;20058;-37
2022/03/12 13:48:58;;;;;;;3.20;1.80;;;;;;;;;;4995066;28;20432;-37
2022/03/12 13:51:23;;;;;;;5.13;2.20;;;;;;;;;;4995088;28;20030;-37
2022/03/12 13:53:56;;;;;;;3.65;1.70;;;;;;;;;;4995093;28;20088;-37
2022/03/12 13:56:23;;;;;;;;;;;;;;;;;;4995297;28;20141;-37
2022/03/12 13:58:48;;;;;;;3.83;2.00;;;;;;;;;;4994900;28;19917;-37
2022/03/12 14:01:31;;;;;;;4.53;1.98;;;;;;;;;;5009882;28;20042;-36
2022/03/12 14:03:58;;;;;;;3.80;2.42;;;;;;;;;;4994928;28;20396;-37
2022/03/12 14:06:43;;;;;;;6.15;2.80;;;;;;;;;;4994579;28;20105;-37
2022/03/12 14:09:10;;;;;;;3.03;1.60;;;;;;;;;;4994824;28;20517;-37
2022/03/12 14:11:41;;;;;;;3.10;1.83;;;;;;;;;;4994734;28;20023;-37
2022/03/12 14:14:08;;;;;;;7.82;1.90;;;;;;;;;;4994128;28;20035;-37
2022/03/12 14:16:40;;;;;;;4.25;2.35;;;;;;;;;;4994433;28;20054;-37
2022/03/12 14:19:10;;;;;;;6.15;2.55;;;;;;;;;;4994505;28;20045;-36
2022/03/12 14:21:47;;;;;;;2.67;2.08;;;;;;;;;;4994518;28;20034;-37
2022/03/12 14:24:14;;;;;;;5.47;2.55;;;;;;;;;;4994446;28;20039;-37
2022/03/12 14:26:59;;;;;;;4.07;2.50;;;;;;;;;;4994375;28;20023;-37
2022/03/12 14:29:29;;;;;;;5.18;2.35;;;;;;;;;;4994651;28;20030;-37
2022/03/12 14:32:00;;;;;;;2.58;1.98;;;;;;;;;;4994176;28;20121;-37
2022/03/12 14:34:27;;;;;;;3.47;2.17;;;;;;;;;;4994413;28;20069;-37
2022/03/12 14:36:53;;;;;;;3.45;2.13;;;;;;;;;;4994151;28;20053;-37
2022/03/12 14:39:20;;;;;;;4.97;2.63;;;;;;;;;;4994403;28;20034;-37
2022/03/12 14:41:46;;;;;;;3.45;2.28;;;;;;;;;;4994149;28;20034;-37
2022/03/12 14:44:16;;;;;;;2.30;1.80;;;;;;;;;;4994076;28;20026;-36
2022/03/12 14:46:50;;;;;;;3.60;2.40;;;;;;;;;;4993883;28;20466;-37